Time;durP1;ratioP1;P1;durP2;ratioP2;P2;SDS_P1;SDS_P2;PMS_P1;PMS_P2;Temp;Humidity;BMP_temperature;BMP_pressure;BME280_temperature;BME280_humidity;BME280_pressure;Samples;Min_cycle;Max_cycle;Signal;HPM_P1;HPM_P2
2022/02/21 00:00:16;;;;;;;7.27;2.43;;;7.90;99.90;;;;;;5034431;28;20168;-85
2022/02/21 00:02:45;;;;;;;9.43;1.70;;;8.00;99.90;;;;;;5017362;28;20191;-85
2022/02/21 00:05:14;;;;;;;8.53;2.37;;;8.00;99.90;;;;;;5017076;28;20599;-85
2022/02/21 00:07:42;;;;;;;7.40;3.13;;;8.00;99.90;;;;;;5016774;28;20225;-85
2022/02/21 00:10:11;;;;;;;7.63;2.03;;;7.90;99.90;;;;;;5017164;28;20634;-86
2022/02/21 00:12:39;;;;;;;6.93;1.80;;;7.90;99.90;;;;;;5017545;28;20213;-86
2022/02/21 00:15:06;;;;;;;13.23;3.10;;;7.80;99.90;;;;;;5017813;28;20214;-86
2022/02/21 00:17:33;;;;;;;5.47;1.67;;;7.90;99.90;;;;;;5020530;28;20162;-86
2022/02/21 00:20:02;;;;;;;9.57;1.70;;;7.90;99.90;;;;;;5019451;28;20236;-86
2022/02/21 00:22:30;;;;;;;7.80;1.73;;;7.90;99.90;;;;;;5017456;28;20167;-86
2022/02/21 00:24:56;;;;;;;10.07;1.70;;;7.90;99.90;;;;;;5017268;28;20159;-87
2022/02/21 00:27:22;;;;;;;10.23;1.83;;;7.90;99.90;;;;;;5016961;28;20179;-87
2022/02/21 00:29:48;;;;;;;8.23;1.43;;;8.00;99.90;;;;;;5016716;28;20167;-84
2022/02/21 00:32:15;;;;;;;10.57;1.83;;;8.10;99.90;;;;;;5034390;28;20229;-83
2022/02/21 00:34:41;;;;;;;6.33;2.27;;;8.20;99.90;;;;;;5016688;28;20277;-84
2022/02/21 00:37:07;;;;;;;7.53;1.53;;;8.10;99.90;;;;;;5019990;28;20178;-86
2022/02/21 00:39:35;;;;;;;13.50;4.30;;;8.00;99.90;;;;;;5030647;28;20183;-87
2022/02/21 00:42:00;;;;;;;5.50;2.00;;;7.90;99.90;;;;;;5054196;28;20241;-87
2022/02/21 00:44:27;;;;;;;7.37;1.77;;;7.90;99.90;;;;;;5036165;28;20269;-87
2022/02/21 00:46:56;;;;;;;8.87;1.33;;;7.90;99.90;;;;;;5036473;28;20194;-86
2022/02/21 00:49:25;;;;;;;6.23;1.80;;;7.90;99.90;;;;;;5036240;28;20197;-86
2022/02/21 00:51:52;;;;;;;7.23;1.30;;;7.80;99.90;;;;;;5036383;28;20165;-86
2022/02/21 00:54:19;;;;;;;7.83;1.63;;;7.80;99.90;;;;;;5036112;28;20208;-86
2022/02/21 00:56:46;;;;;;;6.23;1.23;;;7.80;99.90;;;;;;5036202;28;20157;-86
2022/02/21 00:59:13;;;;;;;5.57;1.70;;;7.80;99.90;;;;;;5036120;28;20174;-84
2022/02/21 01:01:39;;;;;;;10.77;1.83;;;7.80;99.90;;;;;;5036019;28;20200;-86
2022/02/21 01:04:06;;;;;;;7.57;2.17;;;7.80;99.90;;;;;;5036157;28;20164;-86
2022/02/21 01:06:37;;;;;;;9.00;1.40;;;7.40;99.90;;;;;;5036148;28;20169;-86
2022/02/21 01:09:04;;;;;;;6.33;1.57;;;7.20;99.90;;;;;;5035966;28;20605;-86
2022/02/21 01:11:33;;;;;;;7.17;1.57;;;7.20;99.90;;;;;;5035978;28;20239;-86
2022/02/21 01:13:59;;;;;;;8.13;1.60;;;7.10;99.90;;;;;;5035571;28;20220;-86
2022/02/21 01:16:27;;;;;;;6.97;1.93;;;7.10;99.90;;;;;;5036322;28;20172;-86
2022/02/21 01:18:55;;;;;;;6.50;1.60;;;7.10;99.90;;;;;;5036013;28;20226;-86
2022/02/21 01:21:21;;;;;;;10.10;1.73;;;7.00;99.90;;;;;;5035873;28;20169;-86
2022/02/21 01:23:50;;;;;;;14.60;2.17;;;7.00;99.90;;;;;;5036006;28;20172;-85
2022/02/21 01:26:19;;;;;;;7.23;1.40;;;7.00;99.90;;;;;;5035576;28;20172;-85
2022/02/21 01:28:46;;;;;;;11.97;1.80;;;7.00;99.90;;;;;;5053499;28;20161;-85
2022/02/21 01:31:13;;;;;;;12.40;1.53;;;7.00;99.90;;;;;;5053593;28;20161;-86
2022/02/21 01:33:38;;;;;;;7.90;1.27;;;7.00;99.90;;;;;;5035659;28;20199;-86
2022/02/21 01:36:04;;;;;;;7.83;1.67;;;6.90;99.90;;;;;;5035771;28;20255;-86
2022/02/21 01:38:33;;;;;;;10.80;1.77;;;6.90;99.90;;;;;;5035958;28;20270;-86
2022/02/21 01:41:02;;;;;;;5.37;1.40;;;6.90;99.90;;;;;;5035642;28;20161;-86
2022/02/21 01:43:31;;;;;;;4.77;1.23;;;6.80;99.90;;;;;;5035902;28;20271;-87
2022/02/21 01:45:56;;;;;;;8.83;2.10;;;6.80;99.90;;;;;;5053511;28;20160;-86
2022/02/21 01:48:25;;;;;;;4.90;1.53;;;6.80;99.90;;;;;;5035845;28;20251;-86
2022/02/21 01:50:51;;;;;;;14.97;2.23;;;6.70;99.90;;;;;;5053544;28;20162;-87
2022/02/21 01:53:18;;;;;;;6.37;1.70;;;6.70;99.90;;;;;;5035547;28;20283;-86
2022/02/21 01:55:45;;;;;;;11.23;2.03;;;6.70;99.90;;;;;;5036262;28;20191;-86
2022/02/21 01:58:14;;;;;;;4.43;1.00;;;6.70;99.90;;;;;;5039703;28;20168;-86
2022/02/21 02:00:40;;;;;;;9.90;1.77;;;6.80;99.90;;;;;;5039607;28;20212;-87
2022/02/21 02:03:07;;;;;;;7.47;1.70;;;6.80;99.90;;;;;;5039762;28;20191;-87
2022/02/21 02:05:35;;;;;;;6.67;1.27;;;6.90;99.90;;;;;;5039719;28;20263;-86
2022/02/21 02:08:04;;;;;;;5.30;1.40;;;6.80;99.90;;;;;;5039316;28;20160;-87
2022/02/21 02:10:34;;;;;;;7.73;1.50;;;6.80;99.90;;;;;;5039064;28;20168;-87
2022/02/21 02:13:00;;;;;;;11.77;1.60;;;6.80;99.90;;;;;;5038959;28;20210;-87
2022/02/21 02:15:27;;;;;;;8.63;1.50;;;6.80;99.90;;;;;;5039378;28;20168;-87
2022/02/21 02:17:56;;;;;;;7.07;1.20;;;6.80;99.90;;;;;;5039170;28;20236;-87
2022/02/21 02:20:22;;;;;;;10.97;2.07;;;6.70;99.90;;;;;;5038518;28;20184;-87
2022/02/21 02:22:49;;;;;;;8.20;1.60;;;6.70;99.90;;;;;;5039199;28;20172;-87
2022/02/21 02:25:17;;;;;;;6.30;2.20;;;6.70;99.90;;;;;;5039010;28;20184;-88
2022/02/21 02:27:48;;;;;;;8.40;1.70;;;6.60;99.90;;;;;;5056682;28;20167;-86
2022/02/21 02:30:14;;;;;;;12.83;3.07;;;6.60;99.90;;;;;;5056900;28;20622;-87
2022/02/21 02:32:39;;;;;;;10.47;1.43;;;6.60;99.90;;;;;;5038888;28;20165;-87
2022/02/21 02:35:07;;;;;;;10.13;1.60;;;6.60;99.90;;;;;;5056421;28;20204;-86
2022/02/21 02:37:35;;;;;;;6.33;1.20;;;6.70;99.90;;;;;;5038955;28;20180;-87
2022/02/21 02:40:03;;;;;;;9.47;2.30;;;6.80;99.90;;;;;;5038499;28;20177;-87
2022/02/21 02:42:31;;;;;;;10.37;2.50;;;6.90;99.90;;;;;;5038903;28;20188;-87
2022/02/21 02:44:59;;;;;;;8.83;2.00;;;6.90;99.90;;;;;;5038863;28;20617;-88
2022/02/21 02:47:28;;;;;;;9.60;2.30;;;6.90;99.90;;;;;;5038786;28;20179;-87
2022/02/21 02:49:54;;;;;;;10.07;2.17;;;6.80;99.90;;;;;;5038662;28;20169;-87
2022/02/21 02:52:23;;;;;;;12.03;2.63;;;6.70;99.90;;;;;;5038661;28;20613;-85
2022/02/21 02:54:50;;;;;;;11.23;2.20;;;6.60;99.90;;;;;;5038324;28;20216;-86
2022/02/21 02:57:17;;;;;;;7.50;2.20;;;6.60;99.90;;;;;;5038360;28;20165;-87
2022/02/21 02:59:45;;;;;;;15.13;2.30;;;6.60;99.90;;;;;;5038576;28;20171;-87
2022/02/21 03:02:12;;;;;;;6.30;1.83;;;6.50;99.90;;;;;;5038568;28;20260;-86
2022/02/21 03:04:37;;;;;;;9.87;1.43;;;6.40;99.90;;;;;;5038487;28;20165;-86
2022/02/21 03:07:06;;;;;;;12.70;1.90;;;6.50;99.90;;;;;;5038130;28;20165;-85
2022/02/21 03:09:35;;;;;;;16.30;1.97;;;6.40;99.90;;;;;;5038141;28;20175;-87
2022/02/21 03:12:03;;;;;;;13.17;2.00;;;6.40;99.90;;;;;;5038166;28;20279;-85
2022/02/21 03:14:30;;;;;;;12.37;2.10;;;6.30;99.90;;;;;;5037947;28;20211;-86
2022/02/21 03:16:55;;;;;;;14.70;2.10;;;6.40;99.90;;;;;;5038260;28;20160;-87
2022/02/21 03:19:25;;;;;;;15.37;2.37;;;6.40;99.90;;;;;;5038208;28;20171;-87
2022/02/21 03:21:56;;;;;;;8.87;1.60;;;6.40;99.90;;;;;;5038124;28;20159;-86
2022/02/21 03:24:22;;;;;;;12.87;2.40;;;6.40;99.90;;;;;;5037679;28;20176;-86
2022/02/21 03:26:50;;;;;;;12.47;2.33;;;6.40;99.90;;;;;;5037197;28;20183;-86
2022/02/21 03:29:18;;;;;;;10.60;2.17;;;6.40;99.90;;;;;;5037816;28;20172;-86
2022/02/21 03:31:47;;;;;;;18.27;2.27;;;6.40;99.90;;;;;;5037877;28;20569;-86
2022/02/21 03:34:12;;;;;;;9.13;1.70;;;6.40;99.90;;;;;;5037736;28;20242;-86
2022/02/21 03:36:39;;;;;;;15.07;2.60;;;6.50;99.90;;;;;;5037762;28;20211;-87
2022/02/21 03:39:06;;;;;;;11.37;2.47;;;6.50;99.90;;;;;;5055268;28;20172;-87
2022/02/21 03:41:35;;;;;;;10.20;2.10;;;6.40;99.90;;;;;;5037980;28;20643;-87
2022/02/21 03:44:05;;;;;;;8.23;1.73;;;6.40;99.90;;;;;;5037480;28;20605;-86
2022/02/21 03:46:36;;;;;;;14.60;2.50;;;6.50;99.90;;;;;;5037601;28;20172;-86
2022/02/21 03:49:09;;;;;;;14.10;2.20;;;6.60;99.90;;;;;;5055286;28;20179;-87
2022/02/21 03:51:38;;;;;;;13.87;2.37;;;6.60;99.90;;;;;;5037510;28;20200;-87
2022/02/21 03:54:05;;;;;;;14.50;2.67;;;6.60;99.90;;;;;;5037273;28;20206;-87
2022/02/21 03:56:33;;;;;;;10.00;2.23;;;6.60;99.90;;;;;;5037599;28;20647;-87
2022/02/21 03:59:05;;;;;;;14.77;2.27;;;6.60;99.90;;;;;;5055381;28;20232;-86
2022/02/21 04:01:31;;;;;;;18.13;3.10;;;6.60;99.90;;;;;;5037365;28;20254;-87
2022/02/21 04:03:58;;;;;;;14.63;2.50;;;6.50;99.90;;;;;;5036998;28;20176;-87
2022/02/21 04:06:27;;;;;;;12.03;2.17;;;6.50;99.90;;;;;;5055055;28;20170;-87
2022/02/21 04:08:55;;;;;;;9.37;2.67;;;6.60;99.90;;;;;;5037041;28;20244;-86
2022/02/21 04:11:23;;;;;;;12.73;2.20;;;6.70;99.90;;;;;;5037053;28;20191;-87
2022/02/21 04:13:50;;;;;;;13.07;2.20;;;6.70;99.90;;;;;;5036828;28;20243;-87
2022/02/21 04:16:17;;;;;;;17.17;2.93;;;6.80;99.90;;;;;;5037097;28;20661;-87
2022/02/21 04:18:44;;;;;;;12.23;2.20;;;6.70;99.90;;;;;;5036294;28;20639;-87
2022/02/21 04:21:10;;;;;;;13.57;2.97;;;6.70;99.90;;;;;;5036867;28;20177;-86
2022/02/21 04:23:39;;;;;;;10.80;2.03;;;6.70;99.90;;;;;;5037068;28;20178;-86
2022/02/21 04:26:04;;;;;;;10.50;2.20;;;6.70;99.90;;;;;;5036663;28;20695;-85
2022/02/21 04:28:32;;;;;;;10.77;1.73;;;6.60;99.90;;;;;;5036792;28;20266;-86
2022/02/21 04:30:59;;;;;;;12.27;2.43;;;6.70;99.90;;;;;;5054330;28;20654;-86
2022/02/21 04:33:25;;;;;;;11.27;2.83;;;6.60;99.90;;;;;;5036481;28;20235;-87
2022/02/21 04:35:54;;;;;;;14.47;2.20;;;6.70;99.90;;;;;;5036254;28;20215;-86
2022/02/21 04:38:20;;;;;;;7.30;2.20;;;6.60;99.90;;;;;;5036931;28;20634;-86
2022/02/21 04:40:48;;;;;;;9.23;1.77;;;6.60;99.90;;;;;;5036934;28;20169;-86
2022/02/21 04:43:17;;;;;;;11.27;2.23;;;6.50;99.90;;;;;;5036640;28;20182;-87
2022/02/21 04:45:45;;;;;;;8.47;1.80;;;6.60;99.90;;;;;;5054265;28;20248;-87
2022/02/21 04:48:12;;;;;;;7.67;1.50;;;6.50;99.90;;;;;;5036455;28;20172;-86
2022/02/21 04:50:40;;;;;;;9.37;1.80;;;6.60;99.90;;;;;;5036409;28;20184;-86
2022/02/21 04:53:06;;;;;;;9.73;2.20;;;6.60;99.90;;;;;;5036245;28;20200;-86
2022/02/21 04:55:35;;;;;;;8.90;1.70;;;6.60;99.90;;;;;;5054270;28;20169;-85
2022/02/21 04:58:04;;;;;;;9.20;2.03;;;6.70;99.90;;;;;;5054232;28;20186;-86
2022/02/21 05:00:33;;;;;;;5.97;1.50;;;6.70;99.90;;;;;;5054161;28;20156;-86
2022/02/21 05:02:58;;;;;;;9.60;1.90;;;6.60;99.90;;;;;;5036413;28;20176;-87
2022/02/21 05:05:27;;;;;;;9.37;1.67;;;6.50;99.90;;;;;;5036028;28;20176;-86
2022/02/21 05:07:55;;;;;;;6.67;1.27;;;6.50;99.90;;;;;;5036317;28;20170;-86
2022/02/21 05:10:21;;;;;;;9.97;1.87;;;6.40;99.90;;;;;;5036293;28;20178;-86
2022/02/21 05:12:50;;;;;;;9.23;2.33;;;6.40;99.90;;;;;;5036176;28;20167;-86
2022/02/21 05:15:16;;;;;;;6.67;1.57;;;6.40;99.90;;;;;;5035915;28;20219;-86
2022/02/21 05:17:42;;;;;;;7.50;1.70;;;6.50;99.90;;;;;;5036222;28;20534;-87
2022/02/21 05:20:10;;;;;;;10.40;1.40;;;6.50;99.90;;;;;;5035754;28;20212;-87
2022/02/21 05:22:38;;;;;;;8.43;1.30;;;6.50;99.90;;;;;;5036088;28;20160;-86
2022/02/21 05:25:05;;;;;;;17.37;1.83;;;6.40;99.90;;;;;;5036231;28;20168;-86
2022/02/21 05:27:36;;;;;;;11.67;2.40;;;6.30;99.90;;;;;;5036076;28;20198;-86
2022/02/21 05:30:05;;;;;;;9.37;1.40;;;6.20;99.90;;;;;;5037300;28;20592;-86
2022/02/21 05:32:32;;;;;;;5.33;1.27;;;6.10;99.90;;;;;;5039892;28;20176;-86
2022/02/21 05:34:59;;;;;;;7.60;1.57;;;6.10;99.90;;;;;;5040021;28;20207;-85
2022/02/21 05:37:28;;;;;;;10.67;1.60;;;6.00;99.90;;;;;;5040281;28;20172;-86
2022/02/21 05:39:55;;;;;;;8.50;1.30;;;6.00;99.90;;;;;;5040139;28;20168;-86
2022/02/21 05:42:22;;;;;;;10.30;2.03;;;6.10;99.90;;;;;;5040019;28;20169;-86
2022/02/21 05:44:51;;;;;;;8.23;1.13;;;6.10;99.90;;;;;;5039822;28;20176;-86
2022/02/21 05:47:18;;;;;;;6.70;1.73;;;6.00;99.90;;;;;;5039855;28;20165;-87
2022/02/21 05:49:44;;;;;;;8.03;1.67;;;5.90;99.90;;;;;;5039941;28;20177;-87
2022/02/21 05:52:11;;;;;;;12.80;2.33;;;5.90;99.90;;;;;;5039843;28;20167;-87
2022/02/21 05:54:36;;;;;;;8.30;1.67;;;5.90;99.90;;;;;;5039760;28;20234;-87
2022/02/21 05:57:05;;;;;;;9.83;1.50;;;6.00;99.90;;;;;;5039827;28;20160;-87
2022/02/21 05:59:32;;;;;;;7.70;1.50;;;6.00;99.90;;;;;;5039954;28;20257;-86
2022/02/21 06:01:58;;;;;;;7.67;1.80;;;6.00;99.90;;;;;;5039269;28;20196;-86
2022/02/21 06:04:26;;;;;;;8.73;1.87;;;5.80;99.90;;;;;;5057205;28;20223;-86
2022/02/21 06:06:55;;;;;;;11.33;2.03;;;5.80;99.90;;;;;;5039437;28;20172;-86
2022/02/21 06:09:21;;;;;;;6.47;1.37;;;5.70;99.90;;;;;;5039527;28;20175;-86
2022/02/21 06:11:48;;;;;;;10.10;2.10;;;5.70;99.90;;;;;;5039405;28;20192;-86
2022/02/21 06:14:18;;;;;;;6.87;1.50;;;5.70;99.90;;;;;;5039378;28;20588;-87
2022/02/21 06:16:45;;;;;;;7.17;1.80;;;5.70;99.90;;;;;;5039495;28;20206;-86
2022/02/21 06:19:14;;;;;;;10.40;1.43;;;5.80;99.90;;;;;;5039377;28;20179;-86
2022/02/21 06:21:41;;;;;;;11.97;1.53;;;5.80;99.90;;;;;;5039414;28;20557;-86
2022/02/21 06:24:07;;;;;;;9.10;1.80;;;5.70;99.90;;;;;;5039588;28;20168;-86
2022/02/21 06:26:33;;;;;;;7.47;1.53;;;5.60;99.90;;;;;;5039706;28;20175;-86
2022/02/21 06:29:02;;;;;;;11.00;1.77;;;5.70;99.90;;;;;;5041053;28;20160;-86
2022/02/21 06:31:31;;;;;;;8.87;1.77;;;5.80;99.90;;;;;;5041143;28;20329;-85
2022/02/21 06:33:56;;;;;;;9.00;1.50;;;5.70;99.90;;;;;;5058728;28;20275;-87
2022/02/21 06:36:24;;;;;;;8.80;2.00;;;5.60;99.90;;;;;;5042826;28;20160;-87
2022/02/21 06:38:50;;;;;;;6.27;1.73;;;5.50;99.90;;;;;;5058954;28;20178;-88
2022/02/21 06:41:15;;;;;;;13.67;2.00;;;5.50;99.90;;;;;;5038954;28;20172;-86
2022/02/21 06:43:42;;;;;;;7.87;1.50;;;5.50;99.90;;;;;;5038961;28;20609;-88
2022/02/21 06:46:08;;;;;;;8.97;1.60;;;5.60;99.90;;;;;;5038531;28;20167;-87
2022/02/21 06:48:34;;;;;;;12.80;1.57;;;5.70;99.90;;;;;;5038661;28;20191;-86
2022/02/21 06:51:01;;;;;;;10.40;1.90;;;5.60;99.90;;;;;;5038674;28;20218;-87
2022/02/21 06:53:32;;;;;;;12.33;2.30;;;5.70;99.90;;;;;;5038817;28;20667;-86
2022/02/21 06:56:00;;;;;;;9.10;1.83;;;5.70;99.90;;;;;;5038674;28;20183;-85
2022/02/21 06:58:26;;;;;;;7.97;1.30;;;5.70;99.90;;;;;;5038652;28;20195;-86
2022/02/21 07:00:53;;;;;;;10.83;2.03;;;5.80;99.90;;;;;;5038340;28;20217;-87
2022/02/21 07:03:24;;;;;;;7.80;1.60;;;5.80;99.90;;;;;;5038409;28;20175;-88
2022/02/21 07:05:52;;;;;;;9.83;1.90;;;5.80;99.90;;;;;;5038465;28;20538;-86
2022/02/21 07:08:17;;;;;;;8.60;2.10;;;5.80;99.90;;;;;;5038274;28;20241;-86
2022/02/21 07:10:46;;;;;;;9.17;1.60;;;5.80;99.90;;;;;;5038318;28;20196;-86
2022/02/21 07:13:13;;;;;;;9.17;1.63;;;5.80;99.90;;;;;;5056067;28;20164;-87
2022/02/21 07:15:39;;;;;;;7.37;1.60;;;5.80;99.90;;;;;;5038058;28;20215;-87
2022/02/21 07:18:08;;;;;;;7.97;2.10;;;5.80;99.90;;;;;;5055823;28;20679;-87
2022/02/21 07:20:35;;;;;;;7.60;2.10;;;5.70;99.90;;;;;;5038160;28;20168;-87
2022/02/21 07:23:04;;;;;;;9.63;1.50;;;5.80;99.90;;;;;;5056068;28;20206;-87
2022/02/21 07:25:31;;;;;;;10.80;1.60;;;5.90;99.90;;;;;;5038179;28;20196;-87
2022/02/21 07:27:59;;;;;;;7.33;1.57;;;6.00;99.90;;;;;;5056516;28;20636;-86
2022/02/21 07:30:31;;;;;;;7.97;1.90;;;6.00;99.90;;;;;;5038452;28;20633;-87
2022/02/21 07:33:00;;;;;;;6.87;1.27;;;6.10;99.90;;;;;;5055883;28;20168;-88
2022/02/21 07:35:28;;;;;;;10.03;1.63;;;6.10;99.90;;;;;;5038117;28;20742;-88
2022/02/21 07:37:57;;;;;;;13.63;1.63;;;6.10;99.90;;;;;;5037970;28;20172;-89
2022/02/21 07:40:23;;;;;;;7.80;1.87;;;6.10;99.90;;;;;;5037725;28;20934;-88
2022/02/21 07:42:52;;;;;;;9.60;1.50;;;6.20;99.90;;;;;;5037948;28;20180;-87
2022/02/21 07:45:22;;;;;;;9.33;1.83;;;6.10;99.90;;;;;;5037545;28;20177;-87
2022/02/21 07:47:57;;;;;;;10.83;1.70;;;6.20;99.90;;;;;;5037856;28;20186;-87
2022/02/21 07:50:23;;;;;;;11.77;2.10;;;6.30;99.90;;;;;;5037907;28;20183;-88
2022/02/21 07:52:52;;;;;;;9.17;1.80;;;6.40;99.90;;;;;;5037349;28;20164;-87
2022/02/21 07:55:20;;;;;;;8.73;1.67;;;6.50;99.90;;;;;;5037284;28;20733;-88
2022/02/21 07:57:46;;;;;;;9.67;1.70;;;6.50;99.90;;;;;;5037355;28;20187;-87
2022/02/21 08:00:17;;;;;;;6.83;1.93;;;6.50;99.90;;;;;;5037330;28;20177;-86
2022/02/21 08:02:43;;;;;;;16.20;3.13;;;6.50;99.90;;;;;;5023555;28;20174;-88
2022/02/21 08:05:09;;;;;;;9.57;2.10;;;6.50;99.90;;;;;;5039112;28;20197;-88
2022/02/21 08:07:35;;;;;;;15.00;2.17;;;6.60;99.90;;;;;;5033605;28;20269;-87
2022/02/21 08:10:01;;;;;;;15.27;1.93;;;6.60;99.90;;;;;;5036563;28;20571;-88
2022/02/21 08:12:27;;;;;;;9.03;1.77;;;6.80;99.90;;;;;;5036211;28;20235;-87
2022/02/21 08:14:52;;;;;;;9.07;1.83;;;6.90;99.90;;;;;;5054060;28;20291;-88
2022/02/21 08:17:18;;;;;;;10.17;1.67;;;6.90;99.90;;;;;;5035815;28;20194;-86
2022/02/21 08:19:44;;;;;;;9.67;2.17;;;7.00;99.90;;;;;;5033131;28;20173;-87
2022/02/21 08:22:09;;;;;;;10.17;2.57;;;7.00;99.90;;;;;;5030920;28;20243;-86
2022/02/21 08:24:35;;;;;;;14.13;1.87;;;7.00;99.90;;;;;;5020961;28;20280;-87
2022/02/21 08:27:01;;;;;;;7.83;1.40;;;7.00;99.90;;;;;;5024140;28;20266;-87
2022/02/21 08:29:27;;;;;;;13.80;3.10;;;7.10;99.90;;;;;;5033848;28;20601;-87
2022/02/21 08:31:54;;;;;;;18.67;3.13;;;7.00;99.90;;;;;;5036325;28;20264;-87
2022/02/21 08:34:20;;;;;;;11.97;2.57;;;7.10;99.90;;;;;;5035540;28;20204;-86
2022/02/21 08:36:46;;;;;;;14.60;2.40;;;7.10;99.90;;;;;;5035693;28;20179;-87
2022/02/21 08:39:12;;;;;;;14.07;3.07;;;7.10;99.90;;;;;;5035842;28;20173;-87
2022/02/21 08:41:38;;;;;;;14.87;2.47;;;7.20;99.90;;;;;;5035844;28;20201;-88
2022/02/21 08:44:03;;;;;;;13.43;2.30;;;7.20;99.90;;;;;;5035861;28;20562;-87
2022/02/21 08:46:29;;;;;;;20.23;2.83;;;7.20;99.90;;;;;;5035924;28;20169;-87
2022/02/21 08:48:58;;;;;;;20.63;3.63;;;7.20;99.90;;;;;;5050436;28;20210;-87
2022/02/21 08:51:26;;;;;;;11.07;2.23;;;7.20;99.90;;;;;;5035807;28;20185;-85
2022/02/21 08:53:52;;;;;;;12.73;2.53;;;7.10;99.90;;;;;;5031398;28;20205;-87
2022/02/21 08:56:19;;;;;;;13.47;2.37;;;7.00;99.90;;;;;;5016786;28;20566;-88
2022/02/21 08:58:52;;;;;;;19.27;3.57;;;6.90;99.90;;;;;;5021813;28;20712;-87
2022/02/21 09:01:19;;;;;;;15.67;2.57;;;6.80;99.90;;;;;;5016307;28;20696;-88
2022/02/21 09:03:45;;;;;;;14.33;2.23;;;6.60;99.90;;;;;;5022957;28;20651;-88
2022/02/21 09:06:11;;;;;;;18.03;4.17;;;6.50;99.90;;;;;;5044237;28;20178;-86
2022/02/21 09:08:37;;;;;;;15.57;2.73;;;6.50;99.90;;;;;;5049007;28;20188;-87
2022/02/21 09:11:05;;;;;;;16.50;3.23;;;6.40;99.90;;;;;;5015974;28;20189;-87
2022/02/21 09:13:31;;;;;;;15.73;2.97;;;6.40;99.90;;;;;;5016178;28;20214;-86
2022/02/21 09:15:56;;;;;;;13.93;2.97;;;6.40;99.90;;;;;;5016245;28;20173;-86
2022/02/21 09:18:23;;;;;;;17.03;2.70;;;6.50;99.90;;;;;;5021784;28;20191;-86
2022/02/21 09:20:50;;;;;;;16.87;2.93;;;6.50;99.90;;;;;;5036266;28;20174;-87
2022/02/21 09:23:15;;;;;;;23.17;3.50;;;6.50;99.90;;;;;;5035953;28;20168;-86
2022/02/21 09:25:47;;;;;;;14.30;3.63;;;6.60;99.90;;;;;;5036069;28;20224;-86
2022/02/21 09:28:16;;;;;;;18.63;2.80;;;6.60;99.90;;;;;;5036057;28;20174;-86
2022/02/21 09:30:42;;;;;;;16.20;3.33;;;6.70;99.90;;;;;;5036160;28;20226;-88
2022/02/21 09:33:11;;;;;;;12.80;4.00;;;6.70;99.90;;;;;;5035928;28;20175;-86
2022/02/21 09:35:43;;;;;;;14.70;2.97;;;6.90;99.90;;;;;;5036088;28;20185;-88
2022/02/21 09:38:08;;;;;;;14.90;3.90;;;6.90;99.90;;;;;;5036103;28;20173;-87
2022/02/21 09:40:34;;;;;;;15.27;4.13;;;7.00;99.90;;;;;;5035662;28;20172;-86
2022/02/21 09:43:01;;;;;;;15.60;2.77;;;6.90;99.90;;;;;;5035967;28;20169;-86
2022/02/21 09:45:29;;;;;;;20.27;3.23;;;7.00;99.90;;;;;;5035794;28;20169;-86
2022/02/21 09:47:55;;;;;;;19.83;3.97;;;7.00;99.90;;;;;;5033280;28;20270;-85
2022/02/21 09:50:21;;;;;;;18.67;5.00;;;7.00;99.90;;;;;;5032166;28;20220;-86
2022/02/21 09:52:47;;;;;;;17.13;3.30;;;7.00;99.90;;;;;;5033933;28;20449;-85
2022/02/21 09:55:13;;;;;;;22.63;5.00;;;7.10;99.90;;;;;;5034623;28;20197;-85
2022/02/21 09:57:39;;;;;;;27.10;4.33;;;7.20;99.90;;;;;;5034864;28;20621;-86
2022/02/21 10:00:07;;;;;;;15.57;4.70;;;7.20;99.90;;;;;;5034600;28;20169;-86
2022/02/21 10:02:34;;;;;;;18.23;3.60;;;7.20;99.90;;;;;;5034917;28;20169;-87
2022/02/21 10:05:17;;;;;;;15.53;3.03;;;7.30;99.90;;;;;;5034760;28;20170;-87
2022/02/21 10:07:44;;;;;;;16.60;3.60;;;7.40;99.90;;;;;;5034504;28;20164;-86
2022/02/21 10:10:12;;;;;;;18.60;4.40;;;7.50;99.90;;;;;;5034255;28;20177;-86
2022/02/21 10:12:45;;;;;;;19.60;3.83;;;7.50;99.90;;;;;;5035164;28;20166;-86
2022/02/21 10:15:12;;;;;;;26.40;5.50;;;7.40;99.90;;;;;;5034680;28;20209;-86
2022/02/21 10:17:37;;;;;;;17.97;3.43;;;7.30;99.90;;;;;;5037367;28;20322;-85
2022/02/21 10:20:05;;;;;;;21.50;4.60;;;7.40;99.90;;;;;;5038264;28;20215;-87
2022/02/21 10:22:32;;;;;;;17.80;3.73;;;7.40;99.90;;;;;;5038315;28;20634;-86
2022/02/21 10:24:59;;;;;;;15.90;4.07;;;7.50;99.90;;;;;;5039170;28;20173;-86
2022/02/21 10:27:30;;;;;;;21.83;4.57;;;7.60;99.90;;;;;;5039368;28;20162;-86
2022/02/21 10:29:57;;;;;;;15.63;4.10;;;7.70;99.90;;;;;;5039772;28;20209;-87
2022/02/21 10:32:25;;;;;;;28.00;4.97;;;7.80;99.90;;;;;;5038913;28;20214;-87
2022/02/21 10:34:54;;;;;;;15.97;4.23;;;7.90;99.90;;;;;;5040412;28;20302;-85
2022/02/21 10:37:26;;;;;;;24.13;4.33;;;8.30;99.90;;;;;;5041649;28;20168;-87
2022/02/21 10:40:13;;;;;;;17.67;3.40;;;8.50;99.90;;;;;;5044698;28;20176;-87
2022/02/21 10:42:40;;;;;;;27.20;4.13;;;8.70;99.90;;;;;;5045005;28;20244;-87
2022/02/21 10:45:16;;;;;;;23.73;5.07;;;8.60;99.90;;;;;;5046963;28;20197;-87
2022/02/21 10:48:01;;;;;;;24.07;5.50;;;8.50;99.90;;;;;;5042201;28;20595;-87
2022/02/21 10:50:29;;;;;;;28.90;5.17;;;8.30;99.90;;;;;;5038021;28;20251;-87
2022/02/21 10:52:54;;;;;;;25.03;4.60;;;7.80;99.90;;;;;;5037555;28;20558;-86
2022/02/21 10:55:29;;;;;;;28.27;5.87;;;7.50;99.90;;;;;;5037871;28;20210;-86
2022/02/21 10:57:55;;;;;;;24.23;4.23;;;7.30;99.90;;;;;;5038391;28;20175;-87
2022/02/21 11:00:20;;;;;;;44.20;4.23;;;7.20;99.90;;;;;;5037747;28;20459;-87
2022/02/21 11:02:46;;;;;;;22.60;4.03;;;7.20;99.90;;;;;;5037843;28;20173;-88
2022/02/21 11:05:12;;;;;;;19.27;4.30;;;7.20;99.90;;;;;;5038169;28;20624;-88
2022/02/21 11:07:44;;;;;;;30.77;5.60;;;7.20;99.90;;;;;;5037849;28;20189;-87
2022/02/21 11:10:11;;;;;;;27.43;4.03;;;7.00;99.90;;;;;;5038027;28;20177;-88
2022/02/21 11:12:40;;;;;;;26.30;4.47;;;7.00;99.90;;;;;;5037725;28;20177;-88
2022/02/21 11:15:07;;;;;;;22.77;4.27;;;7.00;99.90;;;;;;5037924;28;20211;-88
2022/02/21 11:17:36;;;;;;;28.57;5.00;;;6.90;99.90;;;;;;5037844;28;20195;-88
2022/02/21 11:20:02;;;;;;;25.13;4.00;;;6.70;99.90;;;;;;5037678;28;20266;-89
2022/02/21 11:22:28;;;;;;;21.67;4.10;;;6.60;99.90;;;;;;5036870;28;20262;-88
2022/02/21 11:25:18;;;;;;;24.40;5.23;;;6.50;99.90;;;;;;5037864;28;20529;-86
2022/02/21 11:27:51;;;;;;;40.37;7.03;;;6.50;99.90;;;;;;5037638;28;20625;-88
2022/02/21 11:30:24;;;;;;;30.57;6.13;;;6.50;99.90;;;;;;5037338;28;20166;-87
2022/02/21 11:33:04;;;;;;;34.03;6.00;;;6.50;99.90;;;;;;5037443;28;20222;-88
2022/02/21 11:35:31;;;;;;;38.77;6.53;;;6.40;99.90;;;;;;5037063;28;20592;-88
2022/02/21 11:38:17;;;;;;;33.70;6.13;;;6.30;99.90;;;;;;5036662;28;20244;-88
2022/02/21 11:40:53;;;;;;;39.57;5.63;;;6.30;99.90;;;;;;5036928;28;20244;-87
2022/02/21 11:43:28;;;;;;;35.60;5.83;;;6.40;99.90;;;;;;5037157;28;20177;-84
2022/02/21 12:33:27;;;;;;;37.93;6.97;;;7.40;99.90;;;;;;5337617;23;20600;-89
2022/02/21 12:35:57;;;;;;;40.13;6.47;;;7.40;99.90;;;;;;5016561;28;20175;-90
2022/02/21 12:38:24;;;;;;;29.93;5.57;;;7.40;99.90;;;;;;5016973;28;20175;-89
2022/02/21 12:41:02;;;;;;;28.53;4.83;;;7.50;99.90;;;;;;5015932;28;20179;-89
2022/02/21 12:43:49;;;;;;;26.87;5.60;;;7.50;99.90;;;;;;5016373;28;20267;-89
2022/02/21 12:46:17;;;;;;;26.70;5.03;;;7.50;99.90;;;;;;5041355;28;20222;-88
2022/02/21 12:48:44;;;;;;;24.23;4.90;;;7.40;99.90;;;;;;5019540;28;20248;-90
2022/02/21 12:51:32;;;;;;;24.13;4.73;;;7.40;99.90;;;;;;5016736;28;20175;-88
2022/02/21 12:54:09;;;;;;;23.60;4.43;;;7.40;99.90;;;;;;5016341;28;20195;-90
2022/02/21 12:56:55;;;;;;;33.20;4.60;;;7.40;99.90;;;;;;5049371;28;20181;-88
2022/02/21 12:59:23;;;;;;;29.33;5.47;;;7.50;99.90;;;;;;5057637;28;20224;-88
2022/02/21 13:01:50;;;;;;;29.03;4.10;;;7.40;99.90;;;;;;5031749;28;20187;-88
2022/02/21 13:04:20;;;;;;;35.33;6.73;;;7.40;99.90;;;;;;5026429;28;20170;-88
2022/02/21 13:06:46;;;;;;;29.53;4.37;;;7.50;99.90;;;;;;5030661;28;20190;-88
2022/02/21 13:09:12;;;;;;;24.23;5.40;;;7.60;99.90;;;;;;5022863;28;20266;-88
2022/02/21 13:11:40;;;;;;;39.70;5.43;;;7.60;99.90;;;;;;5032148;28;20225;-89
2022/02/21 13:14:08;;;;;;;28.23;4.77;;;7.70;99.90;;;;;;5048598;28;20279;-87
2022/02/21 13:16:49;;;;;;;29.60;6.03;;;7.90;99.90;;;;;;5045379;28;20168;-88
2022/02/21 13:19:15;;;;;;;27.80;4.73;;;8.00;99.90;;;;;;5029029;28;20162;-89
2022/02/21 13:21:44;;;;;;;33.53;4.90;;;8.20;99.90;;;;;;5020727;28;20230;-89
2022/02/21 13:24:18;;;;;;;26.73;4.23;;;8.40;99.90;;;;;;5031931;28;20194;-89
2022/02/21 13:26:53;;;;;;;20.53;4.03;;;8.60;99.90;;;;;;5030718;28;20174;-89
2022/02/21 13:29:34;;;;;;;31.10;5.57;;;8.80;99.90;;;;;;5026873;28;20190;-89
2022/02/21 13:32:02;;;;;;;28.83;4.43;;;9.10;99.90;;;;;;5027320;28;20658;-89
2022/02/21 13:34:41;;;;;;;17.60;4.00;;;9.10;99.90;;;;;;5028279;28;20208;-89
2022/02/21 13:37:11;;;;;;;23.23;3.87;;;9.10;99.90;;;;;;5029128;28;20215;-89
2022/02/21 13:39:47;;;;;;;24.93;4.07;;;9.00;99.90;;;;;;5029494;28;20639;-88
2022/02/21 13:42:31;;;;;;;24.47;3.80;;;8.80;99.90;;;;;;5028124;28;20178;-88